SBNF Informações do Aeroporto

Informações da Pista
Pista 7 Comprimento 5581 ft Largura 148 ft
Elevação 0 ft Limite 0 ft Heading 0
Pista 25 Comprimento 5581 ft Largura 148 ft
Elevação 0 ft Limite 0 ft Heading 0
Frequências do Aeroporto
Tipo APP Nome NAVEGANTES Frequência 119.5 MHZ
Tipo ATIS Nome ATIS Frequência 127.625 MHZ
Tipo TWR Nome NAVEGANTES Frequência 118.2 MHZ
Navaids do Aeroporto
Tipo NDB Nome Navegantes Frequência 235 KHZ
Informações meteorológicas do aeroporto e NOTAM
ADDS - METARS form results

(0017 UTC 13 November 2019)
Data provider http://aviationweather.gov/metar/data/
 
METAR text: SBNF 130010Z 08012KT 5000 RA SCT006 SCT008 BKN015 21/20 Q1018
Conditions at: SBNF (NAVEGANTES , BR) observed 0010 UTC 13 November 2019
Temperature: 21.0°C (70°F)
Dewpoint: 20.0°C (68°F) [RH = 94%]
Pressure (altimeter): 30.06 inches Hg (1018.0 mb)
Winds: from the E (80 degrees) at 14 MPH (12 knots; 6.2 m/s)
Visibility: 3 miles ( 5 km)
Ceiling: 1500 feet AGL
Clouds: scattered clouds at 600 feet AGL
scattered clouds at 800 feet AGL
broken clouds at 1500 feet AGL
Weather: RA  (moderate rain)

METAR text: SBNF 130000Z 08011KT 8000 -RA SCT008 BKN025 21/20 Q1018
Conditions at: SBNF (NAVEGANTES , BR) observed 0000 UTC 13 November 2019
Temperature: 21.0°C (70°F)
Dewpoint: 20.0°C (68°F) [RH = 94%]
Pressure (altimeter): 30.06 inches Hg (1018.0 mb)
Winds: from the E (80 degrees) at 13 MPH (11 knots; 5.7 m/s)
Visibility: 5 miles ( 8 km)
Ceiling: 2500 feet AGL
Clouds: scattered clouds at 800 feet AGL
broken clouds at 2500 feet AGL
Weather: -RA  (light rain)

Forecast for: SBNF (NAVEGANTES , BR)
Text: TAF SBNF 121530Z 1218/1318 08012KT 9999 SCT020 BKN040 TN20/1308Z TX23/1315Z
Forecast period: 1800 UTC 12 November 2019 to 1800 UTC 13 November 2019
Forecast type: FROM: standard forecast or significant change
Winds: from the E (80 degrees) at 14 MPH (12 knots; 6.2 m/s)
Visibility: 6 or more miles 10+ km)
Ceiling: 4000 feet AGL
Clouds: scattered clouds at 2000 feet AGL
broken clouds at 4000 feet AGL
Weather: no significant weather forecast for this period
Text: PROB40
Forecast period: 2000 UTC 12 November 2019 to 0000 UTC 13 November 2019
Forecast type: TEMPORARY: The following changes expected for less than half the time period
Visibility: 5 miles (8 km)
Ceiling: 1500 feet AGL
Clouds: broken clouds at 1500 feet AGL
broken clouds at 2500 feet AGL
Weather: RA DZ  (moderate rain, moderate drizzle)
Text: TEMPO 1220/1224 8000 RADZ BKN015 BKN025
Forecast period: 0000 to 0900 UTC 13 November 2019
Forecast type: TEMPORARY: The following changes expected for less than half the time period
Winds: from the NNE (30 degrees) at 8 MPH (7 knots; 3.6 m/s)
Visibility: 3 miles (5 km)
Ceiling: 700 feet AGL
Clouds: broken clouds at 700 feet AGL
broken clouds at 1300 feet AGL
Weather: RA DZ BR  (moderate rain, moderate drizzle, mist)